sensor_id;sensor_type;location;lat;lon;timestamp;P1;durP1;ratioP1;P2;durP2;ratioP2
34060;SDS011;20336;-33.424;-70.638;2023-06-10T00:01:39;6.60;;;3.50;;
34060;SDS011;20336;-33.424;-70.638;2023-06-10T00:04:06;8.13;;;3.30;;
34060;SDS011;20336;-33.424;-70.638;2023-06-10T00:06:32;7.57;;;2.80;;
34060;SDS011;20336;-33.424;-70.638;2023-06-10T00:09:04;7.17;;;2.23;;
34060;SDS011;20336;-33.424;-70.638;2023-06-10T00:11:34;4.93;;;2.60;;
34060;SDS011;20336;-33.424;-70.638;2023-06-10T00:14:01;9.07;;;2.90;;
34060;SDS011;20336;-33.424;-70.638;2023-06-10T00:16:28;4.47;;;2.33;;
34060;SDS011;20336;-33.424;-70.638;2023-06-10T00:18:55;4.27;;;2.40;;
34060;SDS011;20336;-33.424;-70.638;2023-06-10T00:21:26;5.00;;;2.10;;
34060;SDS011;20336;-33.424;-70.638;2023-06-10T00:23:54;9.90;;;2.27;;
34060;SDS011;20336;-33.424;-70.638;2023-06-10T00:26:21;6.47;;;2.83;;
34060;SDS011;20336;-33.424;-70.638;2023-06-10T00:28:49;5.73;;;2.37;;
34060;SDS011;20336;-33.424;-70.638;2023-06-10T00:31:16;4.97;;;2.80;;
34060;SDS011;20336;-33.424;-70.638;2023-06-10T00:33:43;6.93;;;2.60;;
34060;SDS011;20336;-33.424;-70.638;2023-06-10T00:36:10;5.83;;;2.27;;
34060;SDS011;20336;-33.424;-70.638;2023-06-10T00:38:37;8.27;;;2.63;;
34060;SDS011;20336;-33.424;-70.638;2023-06-10T00:41:05;7.00;;;2.50;;
34060;SDS011;20336;-33.424;-70.638;2023-06-10T00:43:33;6.73;;;2.33;;
34060;SDS011;20336;-33.424;-70.638;2023-06-10T00:46:00;5.70;;;2.30;;
34060;SDS011;20336;-33.424;-70.638;2023-06-10T00:48:27;7.17;;;2.43;;
34060;SDS011;20336;-33.424;-70.638;2023-06-10T00:50:54;4.00;;;2.30;;
34060;SDS011;20336;-33.424;-70.638;2023-06-10T00:53:21;6.00;;;2.30;;
34060;SDS011;20336;-33.424;-70.638;2023-06-10T00:55:49;4.47;;;2.33;;
34060;SDS011;20336;-33.424;-70.638;2023-06-10T00:58:15;5.63;;;3.10;;
34060;SDS011;20336;-33.424;-70.638;2023-06-10T01:00:42;4.13;;;2.30;;
34060;SDS011;20336;-33.424;-70.638;2023-06-10T01:03:10;10.13;;;2.53;;
34060;SDS011;20336;-33.424;-70.638;2023-06-10T01:05:38;7.03;;;3.53;;
34060;SDS011;20336;-33.424;-70.638;2023-06-10T01:08:08;3.87;;;2.17;;
34060;SDS011;20336;-33.424;-70.638;2023-06-10T01:13:03;11.03;;;3.07;;
34060;SDS011;20336;-33.424;-70.638;2023-06-10T01:15:34;5.97;;;2.23;;
34060;SDS011;20336;-33.424;-70.638;2023-06-10T01:18:05;3.83;;;2.20;;
34060;SDS011;20336;-33.424;-70.638;2023-06-10T01:20:35;4.87;;;2.40;;
34060;SDS011;20336;-33.424;-70.638;2023-06-10T01:23:05;6.57;;;2.40;;
34060;SDS011;20336;-33.424;-70.638;2023-06-10T01:25:32;6.87;;;2.23;;
34060;SDS011;20336;-33.424;-70.638;2023-06-10T01:28:07;6.57;;;2.73;;
34060;SDS011;20336;-33.424;-70.638;2023-06-10T01:30:53;5.93;;;2.33;;
34060;SDS011;20336;-33.424;-70.638;2023-06-10T01:33:28;7.03;;;2.80;;
34060;SDS011;20336;-33.424;-70.638;2023-06-10T01:35:59;5.73;;;2.30;;
34060;SDS011;20336;-33.424;-70.638;2023-06-10T01:38:27;6.07;;;2.40;;
34060;SDS011;20336;-33.424;-70.638;2023-06-10T01:40:55;11.07;;;3.00;;
34060;SDS011;20336;-33.424;-70.638;2023-06-10T01:43:22;5.33;;;2.80;;
34060;SDS011;20336;-33.424;-70.638;2023-06-10T01:45:49;4.10;;;2.83;;
34060;SDS011;20336;-33.424;-70.638;2023-06-10T01:48:16;7.03;;;3.10;;
34060;SDS011;20336;-33.424;-70.638;2023-06-10T01:50:43;7.87;;;3.33;;
34060;SDS011;20336;-33.424;-70.638;2023-06-10T01:53:10;11.57;;;2.90;;
34060;SDS011;20336;-33.424;-70.638;2023-06-10T01:55:37;7.50;;;2.70;;
34060;SDS011;20336;-33.424;-70.638;2023-06-10T01:58:04;14.27;;;2.90;;
34060;SDS011;20336;-33.424;-70.638;2023-06-10T02:00:31;5.90;;;2.80;;
34060;SDS011;20336;-33.424;-70.638;2023-06-10T02:02:57;5.30;;;2.33;;
34060;SDS011;20336;-33.424;-70.638;2023-06-10T02:05:24;8.93;;;3.33;;
34060;SDS011;20336;-33.424;-70.638;2023-06-10T02:07:51;4.87;;;2.43;;
34060;SDS011;20336;-33.424;-70.638;2023-06-10T02:10:18;5.87;;;3.13;;
34060;SDS011;20336;-33.424;-70.638;2023-06-10T02:12:45;10.37;;;2.57;;
34060;SDS011;20336;-33.424;-70.638;2023-06-10T02:15:12;6.13;;;3.13;;
34060;SDS011;20336;-33.424;-70.638;2023-06-10T02:17:39;5.70;;;2.53;;
34060;SDS011;20336;-33.424;-70.638;2023-06-10T02:20:06;8.30;;;3.50;;
34060;SDS011;20336;-33.424;-70.638;2023-06-10T02:22:36;8.73;;;2.50;;
34060;SDS011;20336;-33.424;-70.638;2023-06-10T02:25:04;7.47;;;2.77;;
34060;SDS011;20336;-33.424;-70.638;2023-06-10T02:27:31;11.33;;;3.20;;
34060;SDS011;20336;-33.424;-70.638;2023-06-10T02:29:58;5.93;;;2.73;;
34060;SDS011;20336;-33.424;-70.638;2023-06-10T02:32:25;9.20;;;3.10;;
34060;SDS011;20336;-33.424;-70.638;2023-06-10T02:34:52;7.27;;;4.30;;
34060;SDS011;20336;-33.424;-70.638;2023-06-10T02:37:19;7.10;;;3.20;;
34060;SDS011;20336;-33.424;-70.638;2023-06-10T02:39:46;8.07;;;3.80;;
34060;SDS011;20336;-33.424;-70.638;2023-06-10T02:42:13;4.33;;;2.50;;
34060;SDS011;20336;-33.424;-70.638;2023-06-10T02:44:40;13.30;;;3.47;;
34060;SDS011;20336;-33.424;-70.638;2023-06-10T02:47:07;8.50;;;2.73;;
34060;SDS011;20336;-33.424;-70.638;2023-06-10T02:49:33;4.47;;;2.57;;
34060;SDS011;20336;-33.424;-70.638;2023-06-10T02:52:01;6.03;;;2.77;;
34060;SDS011;20336;-33.424;-70.638;2023-06-10T02:54:27;7.13;;;2.67;;
34060;SDS011;20336;-33.424;-70.638;2023-06-10T02:56:54;7.03;;;2.53;;
34060;SDS011;20336;-33.424;-70.638;2023-06-10T02:59:21;11.10;;;2.93;;
34060;SDS011;20336;-33.424;-70.638;2023-06-10T03:01:48;4.70;;;2.50;;
34060;SDS011;20336;-33.424;-70.638;2023-06-10T03:04:15;5.90;;;2.57;;
34060;SDS011;20336;-33.424;-70.638;2023-06-10T03:06:42;4.87;;;2.23;;
34060;SDS011;20336;-33.424;-70.638;2023-06-10T03:09:10;4.00;;;2.40;;
34060;SDS011;20336;-33.424;-70.638;2023-06-10T03:11:40;5.03;;;3.37;;
34060;SDS011;20336;-33.424;-70.638;2023-06-10T03:14:07;8.57;;;2.80;;
34060;SDS011;20336;-33.424;-70.638;2023-06-10T03:16:34;7.00;;;3.37;;
34060;SDS011;20336;-33.424;-70.638;2023-06-10T03:19:00;7.27;;;2.93;;
34060;SDS011;20336;-33.424;-70.638;2023-06-10T03:21:27;5.73;;;3.10;;
34060;SDS011;20336;-33.424;-70.638;2023-06-10T03:23:54;7.13;;;3.37;;
34060;SDS011;20336;-33.424;-70.638;2023-06-10T03:26:21;8.57;;;4.30;;
34060;SDS011;20336;-33.424;-70.638;2023-06-10T03:28:48;10.23;;;4.13;;
34060;SDS011;20336;-33.424;-70.638;2023-06-10T03:31:15;7.33;;;4.00;;
34060;SDS011;20336;-33.424;-70.638;2023-06-10T03:33:42;7.63;;;4.80;;
34060;SDS011;20336;-33.424;-70.638;2023-06-10T03:36:09;6.77;;;4.10;;
34060;SDS011;20336;-33.424;-70.638;2023-06-10T03:38:37;11.33;;;5.80;;
34060;SDS011;20336;-33.424;-70.638;2023-06-10T03:41:04;7.43;;;4.77;;
34060;SDS011;20336;-33.424;-70.638;2023-06-10T03:43:31;7.93;;;4.10;;
34060;SDS011;20336;-33.424;-70.638;2023-06-10T03:45:58;5.83;;;3.70;;
34060;SDS011;20336;-33.424;-70.638;2023-06-10T03:48:25;5.90;;;3.97;;
34060;SDS011;20336;-33.424;-70.638;2023-06-10T03:50:52;7.50;;;3.93;;
34060;SDS011;20336;-33.424;-70.638;2023-06-10T03:53:19;4.93;;;3.80;;
34060;SDS011;20336;-33.424;-70.638;2023-06-10T03:55:46;7.63;;;3.53;;
34060;SDS011;20336;-33.424;-70.638;2023-06-10T03:58:13;4.67;;;3.50;;
34060;SDS011;20336;-33.424;-70.638;2023-06-10T04:00:40;7.63;;;3.83;;
34060;SDS011;20336;-33.424;-70.638;2023-06-10T04:03:10;6.70;;;4.27;;
34060;SDS011;20336;-33.424;-70.638;2023-06-10T04:05:40;8.10;;;4.43;;
34060;SDS011;20336;-33.424;-70.638;2023-06-10T04:08:08;9.53;;;5.20;;
34060;SDS011;20336;-33.424;-70.638;2023-06-10T04:10:35;5.83;;;4.60;;
34060;SDS011;20336;-33.424;-70.638;2023-06-10T04:13:02;8.27;;;4.80;;
34060;SDS011;20336;-33.424;-70.638;2023-06-10T04:15:30;11.47;;;8.00;;
34060;SDS011;20336;-33.424;-70.638;2023-06-10T04:18:00;14.53;;;8.83;;
34060;SDS011;20336;-33.424;-70.638;2023-06-10T04:20:27;12.43;;;8.97;;
34060;SDS011;20336;-33.424;-70.638;2023-06-10T04:22:54;11.03;;;8.60;;
34060;SDS011;20336;-33.424;-70.638;2023-06-10T04:25:20;20.90;;;12.60;;
34060;SDS011;20336;-33.424;-70.638;2023-06-10T04:27:48;13.33;;;10.17;;
34060;SDS011;20336;-33.424;-70.638;2023-06-10T04:30:16;21.27;;;13.47;;
34060;SDS011;20336;-33.424;-70.638;2023-06-10T04:32:43;15.80;;;11.80;;
34060;SDS011;20336;-33.424;-70.638;2023-06-10T04:35:14;16.33;;;10.50;;
34060;SDS011;20336;-33.424;-70.638;2023-06-10T04:37:41;21.47;;;12.37;;
34060;SDS011;20336;-33.424;-70.638;2023-06-10T04:40:08;21.07;;;13.60;;
34060;SDS011;20336;-33.424;-70.638;2023-06-10T04:42:36;20.87;;;14.00;;
34060;SDS011;20336;-33.424;-70.638;2023-06-10T04:45:03;20.63;;;15.10;;
34060;SDS011;20336;-33.424;-70.638;2023-06-10T04:47:30;23.77;;;14.37;;
34060;SDS011;20336;-33.424;-70.638;2023-06-10T04:50:00;23.20;;;16.60;;
34060;SDS011;20336;-33.424;-70.638;2023-06-10T04:52:27;28.90;;;16.33;;
34060;SDS011;20336;-33.424;-70.638;2023-06-10T04:54:54;29.53;;;17.60;;
34060;SDS011;20336;-33.424;-70.638;2023-06-10T04:57:21;25.03;;;16.73;;
34060;SDS011;20336;-33.424;-70.638;2023-06-10T04:59:47;26.20;;;18.03;;
34060;SDS011;20336;-33.424;-70.638;2023-06-10T05:02:14;28.83;;;17.93;;
34060;SDS011;20336;-33.424;-70.638;2023-06-10T05:04:41;34.73;;;17.83;;
34060;SDS011;20336;-33.424;-70.638;2023-06-10T05:07:08;25.30;;;16.70;;
34060;SDS011;20336;-33.424;-70.638;2023-06-10T05:09:35;26.13;;;17.70;;
34060;SDS011;20336;-33.424;-70.638;2023-06-10T05:12:03;26.90;;;17.67;;
34060;SDS011;20336;-33.424;-70.638;2023-06-10T05:14:30;23.97;;;14.77;;
34060;SDS011;20336;-33.424;-70.638;2023-06-10T05:16:57;21.80;;;14.20;;
34060;SDS011;20336;-33.424;-70.638;2023-06-10T05:19:23;26.43;;;14.40;;
34060;SDS011;20336;-33.424;-70.638;2023-06-10T05:21:50;22.07;;;13.30;;
34060;SDS011;20336;-33.424;-70.638;2023-06-10T05:24:17;21.90;;;12.07;;
34060;SDS011;20336;-33.424;-70.638;2023-06-10T05:26:44;22.40;;;11.80;;
34060;SDS011;20336;-33.424;-70.638;2023-06-10T05:29:12;25.10;;;13.80;;
34060;SDS011;20336;-33.424;-70.638;2023-06-10T05:31:41;23.00;;;12.07;;
34060;SDS011;20336;-33.424;-70.638;2023-06-10T05:34:08;23.10;;;12.07;;
34060;SDS011;20336;-33.424;-70.638;2023-06-10T05:36:34;24.47;;;12.23;;
34060;SDS011;20336;-33.424;-70.638;2023-06-10T05:39:01;20.10;;;11.67;;
34060;SDS011;20336;-33.424;-70.638;2023-06-10T05:41:28;21.87;;;12.03;;
34060;SDS011;20336;-33.424;-70.638;2023-06-10T05:43:55;21.17;;;11.83;;
34060;SDS011;20336;-33.424;-70.638;2023-06-10T05:46:22;19.63;;;12.00;;
34060;SDS011;20336;-33.424;-70.638;2023-06-10T05:48:49;28.30;;;13.40;;
34060;SDS011;20336;-33.424;-70.638;2023-06-10T05:51:16;23.37;;;12.50;;
34060;SDS011;20336;-33.424;-70.638;2023-06-10T05:53:43;21.47;;;12.90;;
34060;SDS011;20336;-33.424;-70.638;2023-06-10T05:56:12;21.67;;;13.07;;
34060;SDS011;20336;-33.424;-70.638;2023-06-10T05:58:39;24.07;;;13.07;;
34060;SDS011;20336;-33.424;-70.638;2023-06-10T06:01:06;28.20;;;14.67;;
34060;SDS011;20336;-33.424;-70.638;2023-06-10T06:03:33;18.17;;;9.20;;
34060;SDS011;20336;-33.424;-70.638;2023-06-10T06:06:00;16.57;;;9.03;;
34060;SDS011;20336;-33.424;-70.638;2023-06-10T06:08:26;17.03;;;8.40;;
34060;SDS011;20336;-33.424;-70.638;2023-06-10T06:10:53;14.07;;;7.17;;
34060;SDS011;20336;-33.424;-70.638;2023-06-10T06:13:20;19.53;;;8.67;;
34060;SDS011;20336;-33.424;-70.638;2023-06-10T06:15:47;17.10;;;7.60;;
34060;SDS011;20336;-33.424;-70.638;2023-06-10T06:18:14;19.37;;;9.47;;
34060;SDS011;20336;-33.424;-70.638;2023-06-10T06:20:41;18.30;;;8.17;;
34060;SDS011;20336;-33.424;-70.638;2023-06-10T06:23:07;18.33;;;9.00;;
34060;SDS011;20336;-33.424;-70.638;2023-06-10T06:25:36;17.63;;;8.97;;
34060;SDS011;20336;-33.424;-70.638;2023-06-10T06:28:05;19.97;;;9.13;;
34060;SDS011;20336;-33.424;-70.638;2023-06-10T06:30:33;15.23;;;8.67;;
34060;SDS011;20336;-33.424;-70.638;2023-06-10T06:32:59;13.63;;;7.97;;
34060;SDS011;20336;-33.424;-70.638;2023-06-10T06:35:26;22.37;;;9.53;;
34060;SDS011;20336;-33.424;-70.638;2023-06-10T06:37:53;21.63;;;8.20;;
34060;SDS011;20336;-33.424;-70.638;2023-06-10T06:40:20;22.70;;;9.30;;
34060;SDS011;20336;-33.424;-70.638;2023-06-10T06:42:47;16.27;;;9.00;;
34060;SDS011;20336;-33.424;-70.638;2023-06-10T06:45:14;14.40;;;8.13;;
34060;SDS011;20336;-33.424;-70.638;2023-06-10T06:47:41;18.40;;;7.63;;
34060;SDS011;20336;-33.424;-70.638;2023-06-10T06:50:08;15.30;;;8.47;;
34060;SDS011;20336;-33.424;-70.638;2023-06-10T06:52:35;12.53;;;7.30;;
34060;SDS011;20336;-33.424;-70.638;2023-06-10T06:55:02;16.67;;;8.47;;
34060;SDS011;20336;-33.424;-70.638;2023-06-10T06:57:29;17.03;;;7.77;;
34060;SDS011;20336;-33.424;-70.638;2023-06-10T06:59:56;15.77;;;8.53;;
34060;SDS011;20336;-33.424;-70.638;2023-06-10T07:02:23;16.10;;;7.70;;
34060;SDS011;20336;-33.424;-70.638;2023-06-10T07:04:50;19.97;;;8.77;;
34060;SDS011;20336;-33.424;-70.638;2023-06-10T07:07:19;18.67;;;7.90;;
34060;SDS011;20336;-33.424;-70.638;2023-06-10T07:09:45;12.93;;;7.97;;
34060;SDS011;20336;-33.424;-70.638;2023-06-10T07:12:12;16.83;;;8.17;;
34060;SDS011;20336;-33.424;-70.638;2023-06-10T07:14:39;16.83;;;7.60;;
34060;SDS011;20336;-33.424;-70.638;2023-06-10T07:17:06;19.60;;;8.13;;
34060;SDS011;20336;-33.424;-70.638;2023-06-10T07:19:33;15.20;;;8.67;;
34060;SDS011;20336;-33.424;-70.638;2023-06-10T07:22:00;17.63;;;7.97;;
34060;SDS011;20336;-33.424;-70.638;2023-06-10T07:24:27;12.87;;;7.57;;
34060;SDS011;20336;-33.424;-70.638;2023-06-10T07:26:54;13.50;;;7.93;;
34060;SDS011;20336;-33.424;-70.638;2023-06-10T07:29:21;16.67;;;8.00;;
34060;SDS011;20336;-33.424;-70.638;2023-06-10T07:31:47;12.70;;;7.40;;
34060;SDS011;20336;-33.424;-70.638;2023-06-10T07:34:14;14.50;;;7.83;;
34060;SDS011;20336;-33.424;-70.638;2023-06-10T07:36:41;13.37;;;7.60;;
34060;SDS011;20336;-33.424;-70.638;2023-06-10T07:39:08;12.20;;;7.67;;
34060;SDS011;20336;-33.424;-70.638;2023-06-10T07:41:35;16.40;;;7.63;;
34060;SDS011;20336;-33.424;-70.638;2023-06-10T07:44:02;14.93;;;8.67;;
34060;SDS011;20336;-33.424;-70.638;2023-06-10T07:46:29;14.17;;;8.23;;
34060;SDS011;20336;-33.424;-70.638;2023-06-10T07:48:56;16.67;;;7.60;;
34060;SDS011;20336;-33.424;-70.638;2023-06-10T07:51:22;15.23;;;7.27;;
34060;SDS011;20336;-33.424;-70.638;2023-06-10T07:53:49;12.30;;;7.37;;
34060;SDS011;20336;-33.424;-70.638;2023-06-10T07:56:16;13.37;;;7.67;;
34060;SDS011;20336;-33.424;-70.638;2023-06-10T07:58:43;20.97;;;8.30;;
34060;SDS011;20336;-33.424;-70.638;2023-06-10T08:01:10;12.07;;;7.60;;
34060;SDS011;20336;-33.424;-70.638;2023-06-10T08:03:37;13.77;;;8.07;;
34060;SDS011;20336;-33.424;-70.638;2023-06-10T08:06:03;14.73;;;7.50;;
34060;SDS011;20336;-33.424;-70.638;2023-06-10T08:08:31;15.47;;;8.37;;
34060;SDS011;20336;-33.424;-70.638;2023-06-10T08:10:58;12.97;;;8.20;;
34060;SDS011;20336;-33.424;-70.638;2023-06-10T08:13:24;17.27;;;8.17;;
34060;SDS011;20336;-33.424;-70.638;2023-06-10T08:15:51;13.83;;;8.63;;
34060;SDS011;20336;-33.424;-70.638;2023-06-10T08:18:20;13.27;;;7.63;;
34060;SDS011;20336;-33.424;-70.638;2023-06-10T08:20:47;12.40;;;8.37;;
34060;SDS011;20336;-33.424;-70.638;2023-06-10T08:23:14;13.73;;;8.10;;
34060;SDS011;20336;-33.424;-70.638;2023-06-10T08:25:41;17.80;;;9.13;;
34060;SDS011;20336;-33.424;-70.638;2023-06-10T08:28:08;19.17;;;10.27;;
34060;SDS011;20336;-33.424;-70.638;2023-06-10T08:30:35;13.73;;;8.70;;
34060;SDS011;20336;-33.424;-70.638;2023-06-10T08:33:01;18.63;;;9.27;;
34060;SDS011;20336;-33.424;-70.638;2023-06-10T08:35:28;17.00;;;8.60;;
34060;SDS011;20336;-33.424;-70.638;2023-06-10T08:37:55;18.33;;;7.97;;
34060;SDS011;20336;-33.424;-70.638;2023-06-10T08:40:22;17.57;;;9.10;;
34060;SDS011;20336;-33.424;-70.638;2023-06-10T08:42:53;20.40;;;8.33;;
34060;SDS011;20336;-33.424;-70.638;2023-06-10T08:45:25;17.63;;;9.03;;
34060;SDS011;20336;-33.424;-70.638;2023-06-10T08:47:54;14.90;;;8.60;;
34060;SDS011;20336;-33.424;-70.638;2023-06-10T08:50:24;16.27;;;8.47;;
34060;SDS011;20336;-33.424;-70.638;2023-06-10T08:52:53;15.00;;;8.47;;
34060;SDS011;20336;-33.424;-70.638;2023-06-10T08:55:26;14.50;;;8.33;;
34060;SDS011;20336;-33.424;-70.638;2023-06-10T08:57:54;23.47;;;9.30;;
34060;SDS011;20336;-33.424;-70.638;2023-06-10T09:00:21;13.87;;;8.60;;
34060;SDS011;20336;-33.424;-70.638;2023-06-10T09:02:47;17.20;;;8.47;;
34060;SDS011;20336;-33.424;-70.638;2023-06-10T09:05:15;19.43;;;9.03;;
34060;SDS011;20336;-33.424;-70.638;2023-06-10T09:07:42;15.83;;;7.80;;
34060;SDS011;20336;-33.424;-70.638;2023-06-10T09:10:09;13.40;;;8.37;;
34060;SDS011;20336;-33.424;-70.638;2023-06-10T09:12:36;14.70;;;9.20;;
34060;SDS011;20336;-33.424;-70.638;2023-06-10T09:15:03;15.83;;;9.13;;
34060;SDS011;20336;-33.424;-70.638;2023-06-10T09:17:30;16.60;;;9.10;;
34060;SDS011;20336;-33.424;-70.638;2023-06-10T09:22:25;19.10;;;10.57;;
34060;SDS011;20336;-33.424;-70.638;2023-06-10T09:25:01;26.80;;;9.83;;
34060;SDS011;20336;-33.424;-70.638;2023-06-10T09:27:29;14.50;;;9.47;;
34060;SDS011;20336;-33.424;-70.638;2023-06-10T09:29:57;20.23;;;9.83;;
34060;SDS011;20336;-33.424;-70.638;2023-06-10T09:32:24;15.43;;;9.27;;
34060;SDS011;20336;-33.424;-70.638;2023-06-10T09:34:51;17.37;;;9.67;;
34060;SDS011;20336;-33.424;-70.638;2023-06-10T09:37:21;17.83;;;9.40;;
34060;SDS011;20336;-33.424;-70.638;2023-06-10T09:40:07;16.73;;;8.97;;
34060;SDS011;20336;-33.424;-70.638;2023-06-10T09:42:36;19.10;;;9.70;;
34060;SDS011;20336;-33.424;-70.638;2023-06-10T09:45:03;17.87;;;9.80;;
34060;SDS011;20336;-33.424;-70.638;2023-06-10T09:47:30;18.73;;;9.97;;
34060;SDS011;20336;-33.424;-70.638;2023-06-10T09:49:57;19.27;;;10.20;;
34060;SDS011;20336;-33.424;-70.638;2023-06-10T09:52:24;21.97;;;10.57;;
34060;SDS011;20336;-33.424;-70.638;2023-06-10T09:54:52;17.83;;;9.90;;
34060;SDS011;20336;-33.424;-70.638;2023-06-10T09:57:19;19.50;;;10.67;;
34060;SDS011;20336;-33.424;-70.638;2023-06-10T09:59:47;18.17;;;9.67;;
34060;SDS011;20336;-33.424;-70.638;2023-06-10T10:02:15;14.23;;;9.40;;
34060;SDS011;20336;-33.424;-70.638;2023-06-10T10:04:42;18.40;;;9.67;;
34060;SDS011;20336;-33.424;-70.638;2023-06-10T10:07:09;16.83;;;10.03;;
34060;SDS011;20336;-33.424;-70.638;2023-06-10T10:09:36;22.17;;;10.07;;
34060;SDS011;20336;-33.424;-70.638;2023-06-10T10:12:13;16.23;;;9.20;;
34060;SDS011;20336;-33.424;-70.638;2023-06-10T10:14:43;19.43;;;8.97;;
34060;SDS011;20336;-33.424;-70.638;2023-06-10T10:17:14;20.50;;;8.77;;
34060;SDS011;20336;-33.424;-70.638;2023-06-10T10:19:48;17.27;;;8.87;;
34060;SDS011;20336;-33.424;-70.638;2023-06-10T10:22:16;20.07;;;9.47;;
34060;SDS011;20336;-33.424;-70.638;2023-06-10T10:24:53;17.40;;;9.27;;
34060;SDS011;20336;-33.424;-70.638;2023-06-10T10:27:28;18.20;;;9.13;;
34060;SDS011;20336;-33.424;-70.638;2023-06-10T10:29:57;16.57;;;9.03;;
34060;SDS011;20336;-33.424;-70.638;2023-06-10T10:35:16;15.67;;;9.17;;
34060;SDS011;20336;-33.424;-70.638;2023-06-10T10:37:48;19.00;;;10.63;;
34060;SDS011;20336;-33.424;-70.638;2023-06-10T10:40:15;23.93;;;10.67;;
34060;SDS011;20336;-33.424;-70.638;2023-06-10T10:42:42;20.60;;;9.83;;
34060;SDS011;20336;-33.424;-70.638;2023-06-10T10:45:10;16.37;;;10.00;;
34060;SDS011;20336;-33.424;-70.638;2023-06-10T10:47:37;15.17;;;9.53;;
34060;SDS011;20336;-33.424;-70.638;2023-06-10T10:50:17;19.43;;;10.67;;
34060;SDS011;20336;-33.424;-70.638;2023-06-10T10:55:21;19.80;;;10.70;;
34060;SDS011;20336;-33.424;-70.638;2023-06-10T10:58:04;29.13;;;10.97;;
34060;SDS011;20336;-33.424;-70.638;2023-06-10T11:02:59;17.03;;;10.13;;
34060;SDS011;20336;-33.424;-70.638;2023-06-10T11:05:37;22.23;;;11.07;;
34060;SDS011;20336;-33.424;-70.638;2023-06-10T11:08:04;25.03;;;10.23;;
34060;SDS011;20336;-33.424;-70.638;2023-06-10T11:10:32;21.10;;;11.70;;
34060;SDS011;20336;-33.424;-70.638;2023-06-10T11:12:59;21.30;;;9.67;;
34060;SDS011;20336;-33.424;-70.638;2023-06-10T11:15:27;18.40;;;9.90;;
34060;SDS011;20336;-33.424;-70.638;2023-06-10T11:23:49;22.03;;;9.93;;
34060;SDS011;20336;-33.424;-70.638;2023-06-10T11:28:36;23.30;;;10.57;;
34060;SDS011;20336;-33.424;-70.638;2023-06-10T11:31:03;18.60;;;9.73;;
34060;SDS011;20336;-33.424;-70.638;2023-06-10T11:33:30;16.00;;;8.67;;
34060;SDS011;20336;-33.424;-70.638;2023-06-10T11:35:57;21.87;;;10.93;;
34060;SDS011;20336;-33.424;-70.638;2023-06-10T11:38:24;20.43;;;11.00;;
34060;SDS011;20336;-33.424;-70.638;2023-06-10T11:40:51;19.37;;;9.90;;
34060;SDS011;20336;-33.424;-70.638;2023-06-10T11:43:18;24.70;;;9.87;;
34060;SDS011;20336;-33.424;-70.638;2023-06-10T11:45:45;21.83;;;10.43;;
34060;SDS011;20336;-33.424;-70.638;2023-06-10T11:48:12;21.57;;;12.07;;
34060;SDS011;20336;-33.424;-70.638;2023-06-10T11:50:39;20.80;;;10.97;;
34060;SDS011;20336;-33.424;-70.638;2023-06-10T11:53:08;22.17;;;10.97;;
34060;SDS011;20336;-33.424;-70.638;2023-06-10T11:55:41;23.13;;;10.53;;
34060;SDS011;20336;-33.424;-70.638;2023-06-10T11:58:12;25.17;;;11.17;;
34060;SDS011;20336;-33.424;-70.638;2023-06-10T12:00:46;21.97;;;10.27;;
34060;SDS011;20336;-33.424;-70.638;2023-06-10T12:03:13;18.77;;;10.47;;
34060;SDS011;20336;-33.424;-70.638;2023-06-10T12:05:40;20.53;;;11.07;;
34060;SDS011;20336;-33.424;-70.638;2023-06-10T12:08:10;21.53;;;11.07;;
34060;SDS011;20336;-33.424;-70.638;2023-06-10T12:10:41;19.47;;;11.10;;
34060;SDS011;20336;-33.424;-70.638;2023-06-10T12:13:08;22.70;;;11.57;;
34060;SDS011;20336;-33.424;-70.638;2023-06-10T12:15:35;22.30;;;12.17;;
34060;SDS011;20336;-33.424;-70.638;2023-06-10T12:18:02;24.40;;;11.33;;
34060;SDS011;20336;-33.424;-70.638;2023-06-10T12:20:30;24.00;;;12.00;;
34060;SDS011;20336;-33.424;-70.638;2023-06-10T12:23:09;21.03;;;11.17;;
34060;SDS011;20336;-33.424;-70.638;2023-06-10T12:25:36;22.87;;;11.07;;
34060;SDS011;20336;-33.424;-70.638;2023-06-10T12:28:03;18.27;;;10.30;;
34060;SDS011;20336;-33.424;-70.638;2023-06-10T12:30:30;20.47;;;10.77;;
34060;SDS011;20336;-33.424;-70.638;2023-06-10T12:32:58;22.33;;;11.20;;
34060;SDS011;20336;-33.424;-70.638;2023-06-10T12:35:25;20.33;;;10.43;;
34060;SDS011;20336;-33.424;-70.638;2023-06-10T12:38:02;23.13;;;10.93;;
34060;SDS011;20336;-33.424;-70.638;2023-06-10T12:40:33;20.20;;;10.50;;
34060;SDS011;20336;-33.424;-70.638;2023-06-10T12:43:01;23.50;;;10.30;;
34060;SDS011;20336;-33.424;-70.638;2023-06-10T12:45:32;30.23;;;10.83;;
34060;SDS011;20336;-33.424;-70.638;2023-06-10T12:48:05;19.37;;;10.07;;
34060;SDS011;20336;-33.424;-70.638;2023-06-10T12:50:37;20.87;;;9.90;;
34060;SDS011;20336;-33.424;-70.638;2023-06-10T12:53:04;21.63;;;11.13;;
34060;SDS011;20336;-33.424;-70.638;2023-06-10T12:55:32;25.33;;;10.23;;
34060;SDS011;20336;-33.424;-70.638;2023-06-10T12:57:59;22.37;;;11.50;;
34060;SDS011;20336;-33.424;-70.638;2023-06-10T13:00:27;22.80;;;11.37;;
34060;SDS011;20336;-33.424;-70.638;2023-06-10T13:02:59;26.70;;;10.60;;
34060;SDS011;20336;-33.424;-70.638;2023-06-10T13:05:27;29.83;;;12.67;;
34060;SDS011;20336;-33.424;-70.638;2023-06-10T13:07:55;24.23;;;11.33;;
34060;SDS011;20336;-33.424;-70.638;2023-06-10T13:10:22;24.43;;;12.53;;
34060;SDS011;20336;-33.424;-70.638;2023-06-10T13:12:50;26.00;;;11.40;;
34060;SDS011;20336;-33.424;-70.638;2023-06-10T13:15:16;19.10;;;10.43;;
34060;SDS011;20336;-33.424;-70.638;2023-06-10T13:17:44;25.27;;;11.87;;
34060;SDS011;20336;-33.424;-70.638;2023-06-10T13:20:14;21.43;;;10.83;;
34060;SDS011;20336;-33.424;-70.638;2023-06-10T13:22:41;21.63;;;10.70;;
34060;SDS011;20336;-33.424;-70.638;2023-06-10T13:25:09;20.83;;;10.43;;
34060;SDS011;20336;-33.424;-70.638;2023-06-10T13:27:36;20.43;;;9.83;;
34060;SDS011;20336;-33.424;-70.638;2023-06-10T13:30:08;17.40;;;9.83;;
34060;SDS011;20336;-33.424;-70.638;2023-06-10T13:32:35;17.43;;;9.70;;
34060;SDS011;20336;-33.424;-70.638;2023-06-10T13:35:02;20.97;;;9.60;;
34060;SDS011;20336;-33.424;-70.638;2023-06-10T13:37:29;21.67;;;9.53;;
34060;SDS011;20336;-33.424;-70.638;2023-06-10T13:39:56;14.07;;;8.10;;
34060;SDS011;20336;-33.424;-70.638;2023-06-10T13:42:23;13.17;;;7.30;;
34060;SDS011;20336;-33.424;-70.638;2023-06-10T13:44:51;14.97;;;7.27;;
34060;SDS011;20336;-33.424;-70.638;2023-06-10T13:47:18;12.70;;;7.10;;
34060;SDS011;20336;-33.424;-70.638;2023-06-10T13:49:46;14.33;;;7.17;;
34060;SDS011;20336;-33.424;-70.638;2023-06-10T13:52:13;14.93;;;6.83;;
34060;SDS011;20336;-33.424;-70.638;2023-06-10T13:54:39;15.13;;;6.97;;
34060;SDS011;20336;-33.424;-70.638;2023-06-10T13:57:06;14.20;;;7.00;;
34060;SDS011;20336;-33.424;-70.638;2023-06-10T13:59:35;14.97;;;7.60;;
34060;SDS011;20336;-33.424;-70.638;2023-06-10T14:02:02;17.73;;;8.47;;
34060;SDS011;20336;-33.424;-70.638;2023-06-10T14:04:29;18.37;;;7.60;;
34060;SDS011;20336;-33.424;-70.638;2023-06-10T14:06:56;18.33;;;7.57;;
34060;SDS011;20336;-33.424;-70.638;2023-06-10T14:09:23;16.30;;;7.87;;
34060;SDS011;20336;-33.424;-70.638;2023-06-10T14:11:49;16.63;;;7.67;;
34060;SDS011;20336;-33.424;-70.638;2023-06-10T14:14:17;19.60;;;8.07;;
34060;SDS011;20336;-33.424;-70.638;2023-06-10T14:16:44;14.30;;;7.43;;
34060;SDS011;20336;-33.424;-70.638;2023-06-10T14:19:11;17.77;;;8.50;;
34060;SDS011;20336;-33.424;-70.638;2023-06-10T14:21:38;24.37;;;10.47;;